createdAt,value
2022-10-30T00:02:31.977Z,101614.56
2022-10-30T00:05:03.950Z,101602.81
2022-10-30T00:07:35.730Z,101601.97
2022-10-30T00:10:08.313Z,101597.75
2022-10-30T00:12:40.277Z,101591.88
2022-10-30T00:15:12.321Z,101598.59
2022-10-30T00:17:44.168Z,101591.88
2022-10-30T00:20:16.242Z,101594.19
2022-10-30T00:22:48.151Z,101596.94
2022-10-30T00:25:20.150Z,101599.66
2022-10-30T00:27:52.008Z,101588.94
2022-10-30T00:30:24.183Z,101589.78
2022-10-30T00:32:56.370Z,101589.78
2022-10-30T00:35:28.484Z,101588.94
2022-10-30T00:38:01.605Z,101590.81
2022-10-30T00:40:33.937Z,101584.31
2022-10-30T00:43:24.986Z,101585.34
2022-10-30T00:46:01.078Z,101588.06
2022-10-30T00:48:33.040Z,101584.50
2022-10-30T00:51:08.222Z,101580.94
2022-10-30T00:53:40.835Z,101582.63
2022-10-30T00:56:13.720Z,101577.78
2022-10-30T00:58:50.624Z,101589.78
2022-10-30T01:01:25.132Z,101571.69
2022-10-30T01:03:58.476Z,101570.00
2022-10-30T01:06:32.662Z,101563.69
2022-10-30T01:09:05.151Z,101568.31
2022-10-30T01:11:37.037Z,101564.75
2022-10-30T01:14:11.186Z,101562.22
2022-10-30T01:17:02.028Z,101569.78
2022-10-30T01:19:40.183Z,101572.09
2022-10-30T01:22:38.098Z,101568.72
2022-10-30T01:25:23.710Z,101570.84
2022-10-30T01:28:15.248Z,101564.53
2022-10-30T01:31:11.638Z,101563.50
2022-10-30T01:33:54.767Z,101564.53
2022-10-30T01:36:35.683Z,101558.88
2022-10-30T01:39:12.751Z,101558.88
2022-10-30T01:41:46.100Z,101556.13
2022-10-30T01:44:23.450Z,101554.22
2022-10-30T01:47:17.088Z,101549.41
2022-10-30T01:50:16.299Z,101545.63
2022-10-30T01:53:07.219Z,101540.78
2022-10-30T01:56:07.409Z,101543.31
2022-10-30T01:59:11.880Z,101532.56
2022-10-30T02:01:44.389Z,101541.84
2022-10-30T02:04:17.024Z,101539.31
2022-10-30T02:06:49.167Z,101540.16
2022-10-30T02:09:21.514Z,101540.16
2022-10-30T02:11:55.864Z,101533.00
2022-10-30T02:14:31.652Z,101532.16
2022-10-30T02:17:06.157Z,101533.22
2022-10-30T02:19:38.581Z,101533.44
2022-10-30T02:22:11.089Z,101529.63
2022-10-30T02:24:43.325Z,101528.19
2022-10-30T02:27:15.344Z,101531.75
2022-10-30T02:29:49.336Z,101538.47
2022-10-30T02:32:21.610Z,101534.06
2022-10-30T02:34:53.454Z,101531.34
2022-10-30T02:37:27.200Z,101526.69
2022-10-30T02:39:59.812Z,101535.97
2022-10-30T02:42:31.932Z,101530.50
2022-10-30T02:45:04.181Z,101534.88
2022-10-30T02:47:36.176Z,101548.53
2022-10-30T02:50:08.783Z,101543.06
2022-10-30T02:52:42.456Z,101538.47
2022-10-30T02:55:14.359Z,101546.88
2022-10-30T02:57:46.979Z,101538.03
2022-10-30T03:00:19.013Z,101539.31
2022-10-30T03:02:56.200Z,101550.63
2022-10-30T03:05:28.423Z,101553.56
2022-10-30T03:08:00.676Z,101560.72
2022-10-30T03:10:33.063Z,101552.53
2022-10-30T03:13:05.039Z,101548.94
2022-10-30T03:15:37.579Z,101556.28
2022-10-30T03:18:11.087Z,101549.78
2022-10-30T03:20:46.600Z,101559.03
2022-10-30T03:23:18.870Z,101562.84
2022-10-30T03:25:58.061Z,101566.41
2022-10-30T03:28:32.149Z,101558.22
2022-10-30T03:31:06.820Z,101557.38
2022-10-30T03:33:39.866Z,101559.03
2022-10-30T03:36:12.741Z,101560.94
2022-10-30T03:38:44.912Z,101550.22
2022-10-30T03:41:20.937Z,101547.69
2022-10-30T03:43:53.767Z,101548.97
2022-10-30T03:46:26.857Z,101552.94
2022-10-30T03:49:05.039Z,101562.59
2022-10-30T03:51:38.337Z,101556.47
2022-10-30T03:54:11.685Z,101562.78
2022-10-30T03:56:45.108Z,101569.31
2022-10-30T03:59:20.156Z,101567.41
2022-10-30T04:02:10.463Z,101568.66
2022-10-30T04:04:42.957Z,101568.66
2022-10-30T04:07:15.168Z,101563.22
2022-10-30T04:09:47.134Z,101571.41
2022-10-30T04:12:19.104Z,101563.22
2022-10-30T04:14:51.050Z,101561.31
2022-10-30T04:17:23.730Z,101565.94
2022-10-30T04:19:56.047Z,101563.22
2022-10-30T04:22:27.987Z,101563.22
2022-10-30T04:25:01.382Z,101564.25
2022-10-30T04:27:43.614Z,101571.59
2022-10-30T04:30:16.007Z,101552.72
2022-10-30T04:32:49.561Z,101550.78
2022-10-30T04:35:26.738Z,101551.03
2022-10-30T04:38:07.025Z,101552.91
2022-10-30T04:40:43.444Z,101551.03
2022-10-30T04:43:17.737Z,101550.19
2022-10-30T04:45:53.893Z,101549.13
2022-10-30T04:48:29.552Z,101548.06
2022-10-30T04:51:01.854Z,101546.41
2022-10-30T04:53:34.409Z,101539.47
2022-10-30T04:56:11.227Z,101553.13
2022-10-30T04:58:44.399Z,101548.69
2022-10-30T05:01:16.826Z,101544.06
2022-10-30T05:03:54.619Z,101547.66
2022-10-30T05:06:29.346Z,101544.91
2022-10-30T05:09:03.170Z,101544.91
2022-10-30T05:11:41.520Z,101541.34
2022-10-30T05:14:13.758Z,101547.66
2022-10-30T05:16:45.973Z,101545.97
2022-10-30T05:19:20.484Z,101545.97
2022-10-30T05:21:58.356Z,101549.75
2022-10-30T05:24:31.388Z,101551.84
2022-10-30T05:27:04.272Z,101559.00
2022-10-30T05:29:37.652Z,101551.84
2022-10-30T05:32:10.132Z,101555.63
2022-10-30T05:34:51.437Z,101556.47
2022-10-30T05:37:28.008Z,101559.19
2022-10-30T05:40:00.924Z,101558.16
2022-10-30T05:42:33.937Z,101559.00
2022-10-30T05:45:09.636Z,101563.59
2022-10-30T05:47:41.881Z,101563.81
2022-10-30T05:50:13.776Z,101564.84
2022-10-30T05:53:01.452Z,101563.19
2022-10-30T05:55:33.732Z,101564.84
2022-10-30T05:58:14.763Z,101560.22
2022-10-30T06:00:49.276Z,101561.91
2022-10-30T06:03:28.756Z,101568.22
2022-10-30T06:06:01.448Z,101573.88
2022-10-30T06:08:33.534Z,101582.91
2022-10-30T06:11:10.368Z,101572.38
2022-10-30T06:13:48.114Z,101576.16
2022-10-30T06:16:22.523Z,101573.63
2022-10-30T06:19:17.513Z,101573.00
2022-10-30T06:21:54.849Z,101580.34
2022-10-30T06:24:33.117Z,101586.84
2022-10-30T06:27:35.212Z,101585.81
2022-10-30T06:30:09.021Z,101583.06
2022-10-30T06:32:41.152Z,101592.72
2022-10-30T06:35:13.751Z,101591.69
2022-10-30T06:37:47.513Z,101589.81
2022-10-30T06:40:20.970Z,101590.84
2022-10-30T06:43:11.463Z,101591.69
2022-10-30T06:45:47.759Z,101592.53
2022-10-30T06:48:19.802Z,101599.03
2022-10-30T06:50:57.396Z,101603.44
2022-10-30T06:53:31.063Z,101603.44
2022-10-30T06:56:24.302Z,101606.88
2022-10-30T06:59:16.586Z,101608.31
2022-10-30T07:02:00.537Z,101608.13
2022-10-30T07:04:45.683Z,101603.72
2022-10-30T07:07:17.982Z,101606.44
2022-10-30T07:09:50.176Z,101611.06
2022-10-30T07:12:26.956Z,101606.44
2022-10-30T07:15:05.614Z,101604.38
2022-10-30T07:17:43.474Z,101615.28
2022-10-30T07:20:25.356Z,101618.63
2022-10-30T07:22:57.317Z,101613.16
2022-10-30T07:25:30.124Z,101613.81
2022-10-30T07:28:11.314Z,101622.63
2022-10-30T07:30:49.667Z,101623.28
2022-10-30T07:33:31.069Z,101624.97
2022-10-30T07:36:12.659Z,101624.53
2022-10-30T07:39:04.831Z,101627.94
2022-10-30T07:41:43.698Z,101629.63
2022-10-30T07:44:37.719Z,101636.34
2022-10-30T07:47:42.670Z,101643.06
2022-10-30T07:50:30.485Z,101637.19
2022-10-30T07:53:02.466Z,101649.38
2022-10-30T07:55:38.163Z,101642.69
2022-10-30T07:58:19.017Z,101637.63
2022-10-30T08:01:07.423Z,101649.84
2022-10-30T08:03:40.029Z,101651.13
2022-10-30T08:06:27.353Z,101656.16
2022-10-30T08:08:59.872Z,101647.53
2022-10-30T08:11:34.019Z,101655.34
2022-10-30T08:14:06.736Z,101651.56
2022-10-30T08:16:38.725Z,101648.41
2022-10-30T08:19:10.735Z,101652.84
2022-10-30T08:21:42.669Z,101648.63
2022-10-30T08:24:20.560Z,101649.91
2022-10-30T08:26:54.835Z,101641.50
2022-10-30T08:29:29.325Z,101644.03
2022-10-30T08:32:02.601Z,101645.69
2022-10-30T08:34:53.000Z,101649.06
2022-10-30T08:37:26.138Z,101651.81
2022-10-30T08:39:58.275Z,101654.09
2022-10-30T08:42:54.894Z,101653.06
2022-10-30T08:45:31.236Z,101656.22
2022-10-30T08:48:18.499Z,101657.69
2022-10-30T08:50:50.299Z,101665.47
2022-10-30T08:53:29.911Z,101650.31
2022-10-30T08:56:03.899Z,101649.94
2022-10-30T08:58:47.347Z,101657.31
2022-10-30T09:01:19.928Z,101653.13
2022-10-30T09:04:11.381Z,101656.28
2022-10-30T09:07:02.099Z,101662.56
2022-10-30T09:10:10.426Z,101662.97
2022-10-30T09:12:42.889Z,101659.19
2022-10-30T09:15:15.247Z,101657.28
2022-10-30T09:17:57.694Z,101657.25
2022-10-30T09:20:30.871Z,101654.53
2022-10-30T09:23:04.111Z,101650.69
2022-10-30T09:25:36.503Z,101657.84
2022-10-30T09:28:18.062Z,101658.66
2022-10-30T09:31:21.983Z,101659.50
2022-10-30T09:33:54.616Z,101657.81
2022-10-30T09:36:46.226Z,101661.81
2022-10-30T09:39:18.715Z,101662.00
2022-10-30T09:41:53.430Z,101658.59
2022-10-30T09:44:32.686Z,101661.53
2022-10-30T09:47:26.747Z,101654.56
2022-10-30T09:50:14.413Z,101663.81
2022-10-30T09:52:57.132Z,101658.50
2022-10-30T09:55:51.268Z,101658.91
2022-10-30T09:59:05.632Z,101658.25
2022-10-30T10:01:44.557Z,101652.94
2022-10-30T10:04:30.584Z,101654.22
2022-10-30T10:07:23.529Z,101654.41
2022-10-30T10:10:17.553Z,101653.72
2022-10-30T10:13:01.446Z,101659.59
2022-10-30T10:15:44.729Z,101653.66
2022-10-30T10:18:20.527Z,101649.44
2022-10-30T10:20:54.758Z,101656.00
2022-10-30T10:23:32.855Z,101654.94
2022-10-30T10:26:19.410Z,101650.69
2022-10-30T10:29:03.233Z,101646.63
2022-10-30T10:31:47.111Z,101635.47
2022-10-30T10:34:40.279Z,101643.88
2022-10-30T10:37:46.258Z,101634.78
2022-10-30T10:40:27.817Z,101641.28
2022-10-30T10:43:24.342Z,101633.22
2022-10-30T10:46:13.950Z,101628.72
2022-10-30T10:49:04.919Z,101630.81
2022-10-30T10:51:42.678Z,101633.47
2022-10-30T10:54:19.908Z,101636.19
2022-10-30T10:56:52.187Z,101634.44
2022-10-30T10:59:32.742Z,101632.22
2022-10-30T11:02:19.577Z,101623.47
2022-10-30T11:04:54.261Z,101629.28
2022-10-30T11:07:31.004Z,101619.25
2022-10-30T11:10:11.347Z,101627.97
2022-10-30T11:12:43.542Z,101626.88
2022-10-30T11:15:48.003Z,101620.69
2022-10-30T11:18:19.838Z,101630.34
2022-10-30T11:20:57.367Z,101627.03
2022-10-30T11:23:44.178Z,101628.75
2022-10-30T11:26:18.832Z,101623.91
2022-10-30T11:28:53.682Z,101625.03
2022-10-30T11:31:40.369Z,101623.13
2022-10-30T11:34:18.485Z,101616.72
2022-10-30T11:36:52.305Z,101612.78
2022-10-30T11:39:27.267Z,101609.25
2022-10-30T11:42:14.319Z,101617.81
2022-10-30T11:44:49.519Z,101612.63
2022-10-30T11:47:31.266Z,101610.38
2022-10-30T11:50:15.523Z,101613.91
2022-10-30T11:52:50.071Z,101616.25
2022-10-30T11:55:33.455Z,101608.41
2022-10-30T11:58:06.597Z,101605.97
2022-10-30T12:00:40.887Z,101595.78
2022-10-30T12:03:38.206Z,101599.41
2022-10-30T12:06:30.258Z,101590.47
2022-10-30T12:09:21.438Z,101597.88
2022-10-30T12:11:53.983Z,101594.28
2022-10-30T12:14:27.477Z,101593.69
2022-10-30T12:16:59.529Z,101585.69
2022-10-30T12:19:32.534Z,101590.31
2022-10-30T12:22:07.421Z,101596.28
2022-10-30T12:24:43.607Z,101603.00
2022-10-30T12:27:21.442Z,101605.59
2022-10-30T12:30:09.892Z,101603.91
2022-10-30T12:33:02.531Z,101604.16
2022-10-30T12:35:47.061Z,101615.13
2022-10-30T12:38:38.589Z,101613.59
2022-10-30T12:41:16.609Z,101603.81
2022-10-30T12:44:09.094Z,101608.50
2022-10-30T12:46:48.862Z,101602.72
2022-10-30T12:49:25.926Z,101603.03
2022-10-30T12:52:18.932Z,101604.78
2022-10-30T12:55:03.971Z,101601.03
2022-10-30T12:57:37.598Z,101600.56
2022-10-30T13:00:16.799Z,101613.72
2022-10-30T13:03:01.518Z,101602.84
2022-10-30T13:06:08.162Z,101596.63
2022-10-30T13:08:47.163Z,101592.69
2022-10-30T13:11:27.678Z,101589.94
2022-10-30T13:14:00.491Z,101589.38
2022-10-30T13:16:32.429Z,101596.81
2022-10-30T13:19:06.604Z,101595.13
2022-10-30T13:22:06.416Z,101590.91
2022-10-30T13:24:47.673Z,101593.34
2022-10-30T13:27:48.993Z,101594.44
2022-10-30T13:30:22.429Z,101593.00
2022-10-30T13:33:35.765Z,101600.97
2022-10-30T13:36:13.918Z,101601.94
2022-10-30T13:39:01.485Z,101597.06
2022-10-30T13:42:02.286Z,101603.56
2022-10-30T13:45:19.325Z,101599.13
2022-10-30T13:48:10.339Z,101595.91
2022-10-30T13:51:16.879Z,101592.47
2022-10-30T13:53:51.835Z,101587.34
2022-10-30T13:56:24.364Z,101593.81
2022-10-30T13:59:05.398Z,101591.22
2022-10-30T14:01:37.583Z,101581.75
2022-10-30T14:04:17.809Z,101576.72
2022-10-30T14:07:01.873Z,101573.00
2022-10-30T14:09:45.116Z,101583.69
2022-10-30T14:12:51.687Z,101588.59
2022-10-30T14:15:24.157Z,101588.84
2022-10-30T14:18:14.353Z,101585.50
2022-10-30T14:20:50.605Z,101583.81
2022-10-30T14:23:40.566Z,101584.91
2022-10-30T14:26:14.304Z,101590.41
2022-10-30T14:28:46.769Z,101589.81
2022-10-30T14:31:20.748Z,101592.78
2022-10-30T14:33:54.099Z,101591.94
2022-10-30T14:36:38.306Z,101593.06
2022-10-30T14:39:13.204Z,101593.53
2022-10-30T14:42:12.841Z,101598.41
2022-10-30T14:45:15.466Z,101585.59
2022-10-30T14:47:50.335Z,101594.31
2022-10-30T14:50:38.414Z,101595.88
2022-10-30T14:53:20.878Z,101597.44
2022-10-30T14:56:18.393Z,101594.34
2022-10-30T14:59:12.467Z,101582.38
2022-10-30T15:02:15.065Z,101583.31
2022-10-30T15:05:09.527Z,101577.06
2022-10-30T15:07:49.445Z,101579.69
2022-10-30T15:10:34.157Z,101579.84
2022-10-30T15:13:22.036Z,101579.72
2022-10-30T15:16:14.754Z,101569.88
2022-10-30T15:18:48.086Z,101575.03
2022-10-30T15:21:25.162Z,101573.47
2022-10-30T15:23:58.726Z,101568.88
2022-10-30T15:26:38.763Z,101576.97
2022-10-30T15:29:18.197Z,101579.59
2022-10-30T15:32:16.275Z,101571.22
2022-10-30T15:35:04.709Z,101571.06
2022-10-30T15:37:36.757Z,101575.38
2022-10-30T15:40:11.704Z,101575.22
2022-10-30T15:42:44.374Z,101581.44
2022-10-30T15:45:19.514Z,101575.78
2022-10-30T15:47:59.960Z,101580.06
2022-10-30T15:50:34.033Z,101574.66
2022-10-30T15:53:06.238Z,101573.91
2022-10-30T15:55:38.384Z,101571.00
2022-10-30T15:58:16.063Z,101576.59
2022-10-30T16:00:59.306Z,101578.97
2022-10-30T16:03:31.509Z,101577.75
2022-10-30T16:06:12.737Z,101588.38
2022-10-30T16:08:46.851Z,101588.56
2022-10-30T16:11:21.109Z,101590.69
2022-10-30T16:13:53.931Z,101598.56
2022-10-30T16:16:30.831Z,101600.44
2022-10-30T16:19:04.066Z,101600.91
2022-10-30T16:21:37.134Z,101592.91
2022-10-30T16:24:09.687Z,101599.72
2022-10-30T16:26:42.046Z,101596.34
2022-10-30T16:29:18.354Z,101589.41
2022-10-30T16:31:50.913Z,101590.09
2022-10-30T16:34:26.366Z,101588.00
2022-10-30T16:36:59.428Z,101587.84
2022-10-30T16:39:32.810Z,101581.97
2022-10-30T16:42:04.867Z,101594.28
2022-10-30T16:44:37.043Z,101593.88
2022-10-30T16:47:17.647Z,101598.75
2022-10-30T16:49:53.269Z,101593.69
2022-10-30T16:52:32.263Z,101599.44
2022-10-30T16:55:13.168Z,101601.56
2022-10-30T16:57:47.072Z,101605.63
2022-10-30T17:00:27.060Z,101606.03
2022-10-30T17:03:10.532Z,101607.34
2022-10-30T17:05:47.548Z,101608.03
2022-10-30T17:08:26.912Z,101613.94
2022-10-30T17:11:20.096Z,101618.84
2022-10-30T17:13:56.035Z,101615.69
2022-10-30T17:16:30.554Z,101615.06
2022-10-30T17:19:27.174Z,101606.22
2022-10-30T17:22:01.872Z,101612.38
2022-10-30T17:24:35.860Z,101621.91
2022-10-30T17:27:26.268Z,101624.88
2022-10-30T17:29:58.651Z,101625.28
2022-10-30T17:32:44.485Z,101614.53
2022-10-30T17:35:19.381Z,101622.13
2022-10-30T17:37:52.094Z,101621.97
2022-10-30T17:40:24.003Z,101619.88
2022-10-30T17:42:55.998Z,101622.84
2022-10-30T17:45:27.837Z,101625.00
2022-10-30T17:47:59.963Z,101618.03
2022-10-30T17:50:32.253Z,101629.25
2022-10-30T17:53:04.242Z,101632.19
2022-10-30T17:55:37.261Z,101632.19
2022-10-30T17:58:09.259Z,101635.16
2022-10-30T18:00:41.275Z,101637.28
2022-10-30T18:03:13.127Z,101637.72
2022-10-30T18:05:45.746Z,101639.44
2022-10-30T18:08:17.782Z,101646.41
2022-10-30T18:10:49.684Z,101644.97
2022-10-30T18:13:21.978Z,101653.19
2022-10-30T18:15:56.491Z,101650.44
2022-10-30T18:18:28.279Z,101647.47
2022-10-30T18:21:00.273Z,101639.25
2022-10-30T18:23:51.406Z,101641.97
2022-10-30T18:26:26.711Z,101640.34
2022-10-30T18:28:58.701Z,101646.88
2022-10-30T18:31:30.734Z,101645.19
2022-10-30T18:34:02.897Z,101653.41
2022-10-30T18:36:34.732Z,101649.22
2022-10-30T18:39:06.617Z,101646.69
2022-10-30T18:41:42.766Z,101653.22
2022-10-30T18:44:18.650Z,101651.78
2022-10-30T18:46:50.829Z,101649.25
2022-10-30T18:49:24.422Z,101654.09
2022-10-30T18:51:56.397Z,101662.75
2022-10-30T18:54:28.334Z,101658.53
2022-10-30T18:57:00.136Z,101665.91
2022-10-30T18:59:31.953Z,101647.19
2022-10-30T19:02:04.033Z,101661.53
2022-10-30T19:04:36.235Z,101663.88
2022-10-30T19:07:09.844Z,101661.16
2022-10-30T19:09:41.852Z,101659.91
2022-10-30T19:12:13.880Z,101656.13
2022-10-30T19:14:45.890Z,101666.66
2022-10-30T19:17:17.807Z,101665.19
2022-10-30T19:19:49.660Z,101654.44
2022-10-30T19:22:21.718Z,101660.34
2022-10-30T19:24:53.822Z,101651.53
2022-10-30T19:27:25.815Z,101654.28
2022-10-30T19:29:57.721Z,101658.28
2022-10-30T19:32:29.684Z,101661.66
2022-10-30T19:35:01.692Z,101658.31
2022-10-30T19:37:33.650Z,101661.25
2022-10-30T19:40:28.586Z,101663.34
2022-10-30T19:43:01.138Z,101656.41
2022-10-30T19:45:34.166Z,101660.41
2022-10-30T19:48:20.657Z,101660.00
2022-10-30T19:50:56.736Z,101668.00
2022-10-30T19:53:28.607Z,101670.13
2022-10-30T19:56:00.530Z,101669.28
2022-10-30T19:58:32.632Z,101669.28
2022-10-30T20:01:04.779Z,101669.50
2022-10-30T20:03:36.807Z,101675.63
2022-10-30T20:06:13.903Z,101678.97
2022-10-30T20:08:45.846Z,101684.44
2022-10-30T20:11:17.785Z,101676.22
2022-10-30T20:13:52.199Z,101664.66
2022-10-30T20:16:26.493Z,101671.38
2022-10-30T20:18:58.406Z,101669.28
2022-10-30T20:21:30.966Z,101669.94
2022-10-30T20:24:02.949Z,101668.69
2022-10-30T20:26:35.021Z,101674.34
2022-10-30T20:29:08.578Z,101677.28
2022-10-30T20:31:40.448Z,101687.38
2022-10-30T20:34:12.505Z,101681.06
2022-10-30T20:36:44.368Z,101681.31
2022-10-30T20:39:16.312Z,101684.44
2022-10-30T20:41:48.470Z,101684.88
2022-10-30T20:44:20.571Z,101685.31
2022-10-30T20:46:52.451Z,101681.94
2022-10-30T20:49:24.555Z,101688.44
2022-10-30T20:51:56.471Z,101690.56
2022-10-30T20:54:28.462Z,101697.94
2022-10-30T20:57:00.363Z,101697.09
2022-10-30T20:59:32.163Z,101697.09
2022-10-30T21:02:04.285Z,101695.41
2022-10-30T21:04:36.303Z,101693.72
2022-10-30T21:07:08.392Z,101692.00
2022-10-30T21:09:40.392Z,101693.28
2022-10-30T21:12:12.348Z,101695.19
2022-10-30T21:14:44.394Z,101692.88
2022-10-30T21:17:16.235Z,101691.19
2022-10-30T21:19:48.097Z,101694.97
2022-10-30T21:22:22.971Z,101691.56
2022-10-30T21:24:55.192Z,101694.28
2022-10-30T21:27:27.114Z,101693.28
2022-10-30T21:29:59.452Z,101685.06
2022-10-30T21:32:31.343Z,101684.88
2022-10-30T21:35:03.589Z,101685.72
2022-10-30T21:37:36.318Z,101686.34
2022-10-30T21:40:08.972Z,101692.66
2022-10-30T21:42:40.866Z,101697.91
2022-10-30T21:45:12.862Z,101695.19
2022-10-30T21:47:44.852Z,101692.44
2022-10-30T21:50:16.806Z,101694.13
2022-10-30T21:52:48.581Z,101694.13
2022-10-30T21:55:20.520Z,101688.66
2022-10-30T21:57:52.389Z,101683.19
2022-10-30T22:00:24.270Z,101683.19
2022-10-30T22:02:56.922Z,101682.16
2022-10-30T22:05:28.738Z,101691.41
2022-10-30T22:08:00.922Z,101690.56
2022-10-30T22:10:33.733Z,101680.66
2022-10-30T22:13:05.581Z,101685.28
2022-10-30T22:15:37.438Z,101691.59
2022-10-30T22:18:09.524Z,101695.38
2022-10-30T22:20:41.361Z,101700.84
2022-10-30T22:23:13.147Z,101698.34
2022-10-30T22:25:53.985Z,101699.38
2022-10-30T22:28:26.688Z,101697.91
2022-10-30T22:31:10.301Z,101698.09
2022-10-30T22:33:43.367Z,101700.38
2022-10-30T22:36:18.638Z,101699.53
2022-10-30T22:38:55.654Z,101705.84
2022-10-30T22:41:31.347Z,101706.69
2022-10-30T22:44:10.043Z,101701.22
2022-10-30T22:46:42.057Z,101709.44
2022-10-30T22:49:14.066Z,101717.63
2022-10-30T22:51:46.022Z,101712.41
2022-10-30T22:54:17.755Z,101719.75
2022-10-30T22:56:49.617Z,101721.84
2022-10-30T22:59:21.599Z,101723.97
2022-10-30T23:01:53.507Z,101711.34
2022-10-30T23:04:25.610Z,101707.09
2022-10-30T23:06:57.467Z,101709.41
2022-10-30T23:09:29.307Z,101709.63
2022-10-30T23:12:01.178Z,101719.94
2022-10-30T23:14:33.070Z,101724.56
2022-10-30T23:17:05.029Z,101731.06
2022-10-30T23:19:36.822Z,101726.66
2022-10-30T23:22:08.896Z,101735.88
2022-10-30T23:24:40.742Z,101732.31
2022-10-30T23:27:12.580Z,101733.56
2022-10-30T23:29:44.483Z,101745.31
2022-10-30T23:32:16.354Z,101743.63
2022-10-30T23:34:48.321Z,101731.44
2022-10-30T23:37:20.189Z,101749.09
2022-10-30T23:39:52.038Z,101744.03
2022-10-30T23:42:24.059Z,101748.63
2022-10-30T23:44:55.955Z,101751.78
2022-10-30T23:47:27.931Z,101750.75
2022-10-30T23:49:59.711Z,101761.69
2022-10-30T23:52:31.597Z,101760.66
2022-10-30T23:55:03.572Z,101766.94
2022-10-30T23:57:35.439Z,101769.47
